sensor_id;sensor_type;location;lat;lon;timestamp;temperature;humidity
10875;DHT22;5490;52.200;8.786;2023-03-26T00:01:12;9.10;99.90
10875;DHT22;5490;52.200;8.786;2023-03-26T00:03:40;9.10;99.90
10875;DHT22;5490;52.200;8.786;2023-03-26T00:06:13;9.10;99.90
10875;DHT22;5490;52.200;8.786;2023-03-26T00:08:42;9.00;99.90
10875;DHT22;5490;52.200;8.786;2023-03-26T00:11:11;9.00;99.90
10875;DHT22;5490;52.200;8.786;2023-03-26T00:13:39;9.00;99.90
10875;DHT22;5490;52.200;8.786;2023-03-26T00:16:10;9.00;99.90
10875;DHT22;5490;52.200;8.786;2023-03-26T00:18:38;9.00;99.90
10875;DHT22;5490;52.200;8.786;2023-03-26T00:21:07;9.00;99.90
10875;DHT22;5490;52.200;8.786;2023-03-26T00:23:42;9.00;99.90
10875;DHT22;5490;52.200;8.786;2023-03-26T00:26:09;9.00;99.90
10875;DHT22;5490;52.200;8.786;2023-03-26T00:28:36;8.90;99.90
10875;DHT22;5490;52.200;8.786;2023-03-26T00:31:06;8.90;99.90
10875;DHT22;5490;52.200;8.786;2023-03-26T00:33:34;8.90;99.90
10875;DHT22;5490;52.200;8.786;2023-03-26T00:36:04;8.80;99.90
10875;DHT22;5490;52.200;8.786;2023-03-26T00:38:34;8.90;99.90
10875;DHT22;5490;52.200;8.786;2023-03-26T00:41:04;8.90;99.90
10875;DHT22;5490;52.200;8.786;2023-03-26T00:43:33;8.90;99.90
10875;DHT22;5490;52.200;8.786;2023-03-26T00:59:18;8.90;99.90
10875;DHT22;5490;52.200;8.786;2023-03-26T01:01:47;9.10;99.90
10875;DHT22;5490;52.200;8.786;2023-03-26T01:04:21;9.10;99.90
10875;DHT22;5490;52.200;8.786;2023-03-26T01:06:52;9.20;99.90
10875;DHT22;5490;52.200;8.786;2023-03-26T01:13:35;9.20;99.90
10875;DHT22;5490;52.200;8.786;2023-03-26T01:16:08;9.20;99.90
10875;DHT22;5490;52.200;8.786;2023-03-26T01:18:37;9.20;99.90
10875;DHT22;5490;52.200;8.786;2023-03-26T01:21:07;9.20;99.90
10875;DHT22;5490;52.200;8.786;2023-03-26T01:23:42;9.20;99.90
10875;DHT22;5490;52.200;8.786;2023-03-26T01:26:22;9.20;99.90
10875;DHT22;5490;52.200;8.786;2023-03-26T01:28:54;9.20;99.90
10875;DHT22;5490;52.200;8.786;2023-03-26T01:31:27;9.20;99.90
10875;DHT22;5490;52.200;8.786;2023-03-26T01:34:02;9.20;99.90
10875;DHT22;5490;52.200;8.786;2023-03-26T01:36:36;9.20;99.90
10875;DHT22;5490;52.200;8.786;2023-03-26T01:39:07;9.20;99.90
10875;DHT22;5490;52.200;8.786;2023-03-26T01:41:41;9.20;99.90
10875;DHT22;5490;52.200;8.786;2023-03-26T01:44:15;9.20;99.90
10875;DHT22;5490;52.200;8.786;2023-03-26T01:46:44;9.20;99.90
10875;DHT22;5490;52.200;8.786;2023-03-26T02:01:25;9.20;99.90
10875;DHT22;5490;52.200;8.786;2023-03-26T02:03:59;9.30;99.90
10875;DHT22;5490;52.200;8.786;2023-03-26T02:06:32;9.30;99.90
10875;DHT22;5490;52.200;8.786;2023-03-26T02:09:04;9.40;99.90
10875;DHT22;5490;52.200;8.786;2023-03-26T02:18:36;9.30;99.90
10875;DHT22;5490;52.200;8.786;2023-03-26T02:21:06;9.40;99.90
10875;DHT22;5490;52.200;8.786;2023-03-26T02:23:34;9.40;99.90
10875;DHT22;5490;52.200;8.786;2023-03-26T02:26:04;9.30;99.90
10875;DHT22;5490;52.200;8.786;2023-03-26T02:28:31;9.30;99.90
10875;DHT22;5490;52.200;8.786;2023-03-26T02:30:58;9.30;99.90
10875;DHT22;5490;52.200;8.786;2023-03-26T02:33:26;9.30;99.90
10875;DHT22;5490;52.200;8.786;2023-03-26T02:35:54;9.30;99.90
10875;DHT22;5490;52.200;8.786;2023-03-26T02:38:24;9.30;99.90
10875;DHT22;5490;52.200;8.786;2023-03-26T02:40:51;9.30;99.90
10875;DHT22;5490;52.200;8.786;2023-03-26T02:43:18;9.30;99.90
10875;DHT22;5490;52.200;8.786;2023-03-26T02:45:45;9.30;99.90
10875;DHT22;5490;52.200;8.786;2023-03-26T02:48:12;9.30;99.90
10875;DHT22;5490;52.200;8.786;2023-03-26T02:50:39;9.30;99.90
10875;DHT22;5490;52.200;8.786;2023-03-26T02:53:08;9.20;99.90
10875;DHT22;5490;52.200;8.786;2023-03-26T02:55:36;9.20;99.90
10875;DHT22;5490;52.200;8.786;2023-03-26T02:58:02;9.10;99.90
10875;DHT22;5490;52.200;8.786;2023-03-26T03:00:30;9.00;99.90
10875;DHT22;5490;52.200;8.786;2023-03-26T03:02:58;9.00;99.90
10875;DHT22;5490;52.200;8.786;2023-03-26T03:05:29;9.00;99.90
10875;DHT22;5490;52.200;8.786;2023-03-26T03:07:56;8.90;99.90
10875;DHT22;5490;52.200;8.786;2023-03-26T03:10:25;8.90;99.90
10875;DHT22;5490;52.200;8.786;2023-03-26T03:12:53;8.90;99.90
10875;DHT22;5490;52.200;8.786;2023-03-26T03:15:20;8.80;99.90
10875;DHT22;5490;52.200;8.786;2023-03-26T03:20:41;8.80;99.90
10875;DHT22;5490;52.200;8.786;2023-03-26T03:23:09;8.70;99.90
10875;DHT22;5490;52.200;8.786;2023-03-26T03:25:35;8.60;99.90
10875;DHT22;5490;52.200;8.786;2023-03-26T03:28:03;8.60;99.90
10875;DHT22;5490;52.200;8.786;2023-03-26T03:30:30;8.50;99.90
10875;DHT22;5490;52.200;8.786;2023-03-26T03:32:57;8.50;99.90
10875;DHT22;5490;52.200;8.786;2023-03-26T03:35:24;8.50;99.90
10875;DHT22;5490;52.200;8.786;2023-03-26T03:37:53;8.40;99.90
10875;DHT22;5490;52.200;8.786;2023-03-26T03:40:20;8.40;99.90
10875;DHT22;5490;52.200;8.786;2023-03-26T03:42:46;8.30;99.90
10875;DHT22;5490;52.200;8.786;2023-03-26T03:45:13;8.30;99.90
10875;DHT22;5490;52.200;8.786;2023-03-26T03:47:40;8.40;99.90
10875;DHT22;5490;52.200;8.786;2023-03-26T03:50:08;8.30;99.90
10875;DHT22;5490;52.200;8.786;2023-03-26T03:52:35;8.30;99.90
10875;DHT22;5490;52.200;8.786;2023-03-26T03:55:04;8.40;99.90
10875;DHT22;5490;52.200;8.786;2023-03-26T03:57:31;8.40;99.90
10875;DHT22;5490;52.200;8.786;2023-03-26T03:59:59;8.40;99.90
10875;DHT22;5490;52.200;8.786;2023-03-26T04:02:26;8.40;99.90
10875;DHT22;5490;52.200;8.786;2023-03-26T04:04:54;8.40;99.90
10875;DHT22;5490;52.200;8.786;2023-03-26T04:07:22;8.40;99.90
10875;DHT22;5490;52.200;8.786;2023-03-26T04:09:49;8.40;99.90
10875;DHT22;5490;52.200;8.786;2023-03-26T04:12:17;8.40;99.90
10875;DHT22;5490;52.200;8.786;2023-03-26T04:14:44;8.40;99.90
10875;DHT22;5490;52.200;8.786;2023-03-26T04:17:11;8.40;99.90
10875;DHT22;5490;52.200;8.786;2023-03-26T04:19:40;8.50;99.90
10875;DHT22;5490;52.200;8.786;2023-03-26T04:22:08;8.50;99.90
10875;DHT22;5490;52.200;8.786;2023-03-26T04:24:36;8.50;99.90
10875;DHT22;5490;52.200;8.786;2023-03-26T04:27:05;8.50;99.90
10875;DHT22;5490;52.200;8.786;2023-03-26T04:29:42;8.50;99.90
10875;DHT22;5490;52.200;8.786;2023-03-26T04:40:38;8.60;99.90
10875;DHT22;5490;52.200;8.786;2023-03-26T04:43:10;8.70;99.90
10875;DHT22;5490;52.200;8.786;2023-03-26T04:45:37;8.70;99.90
10875;DHT22;5490;52.200;8.786;2023-03-26T04:48:04;8.80;99.90
10875;DHT22;5490;52.200;8.786;2023-03-26T04:50:32;8.80;99.90
10875;DHT22;5490;52.200;8.786;2023-03-26T04:52:59;8.90;99.90
10875;DHT22;5490;52.200;8.786;2023-03-26T04:55:28;8.90;99.90
10875;DHT22;5490;52.200;8.786;2023-03-26T04:57:58;8.90;99.90
10875;DHT22;5490;52.200;8.786;2023-03-26T05:00:28;9.00;99.90
10875;DHT22;5490;52.200;8.786;2023-03-26T05:02:54;9.00;99.90
10875;DHT22;5490;52.200;8.786;2023-03-26T05:05:22;9.00;99.90
10875;DHT22;5490;52.200;8.786;2023-03-26T05:07:49;9.10;99.90
10875;DHT22;5490;52.200;8.786;2023-03-26T05:10:16;9.10;99.90
10875;DHT22;5490;52.200;8.786;2023-03-26T05:12:44;9.20;99.90
10875;DHT22;5490;52.200;8.786;2023-03-26T05:15:13;9.10;99.90
10875;DHT22;5490;52.200;8.786;2023-03-26T05:17:41;9.20;99.90
10875;DHT22;5490;52.200;8.786;2023-03-26T05:20:14;9.20;99.90
10875;DHT22;5490;52.200;8.786;2023-03-26T05:22:42;9.20;99.90
10875;DHT22;5490;52.200;8.786;2023-03-26T05:25:09;9.20;99.90
10875;DHT22;5490;52.200;8.786;2023-03-26T05:27:36;9.20;99.90
10875;DHT22;5490;52.200;8.786;2023-03-26T05:30:04;9.20;99.90
10875;DHT22;5490;52.200;8.786;2023-03-26T05:32:32;9.20;99.90
10875;DHT22;5490;52.200;8.786;2023-03-26T05:35:00;9.20;99.90
10875;DHT22;5490;52.200;8.786;2023-03-26T05:37:28;9.20;99.90
10875;DHT22;5490;52.200;8.786;2023-03-26T05:45:59;9.20;99.90
10875;DHT22;5490;52.200;8.786;2023-03-26T05:48:26;9.30;99.90
10875;DHT22;5490;52.200;8.786;2023-03-26T05:50:55;9.20;99.90
10875;DHT22;5490;52.200;8.786;2023-03-26T05:53:23;9.30;99.90
10875;DHT22;5490;52.200;8.786;2023-03-26T05:55:50;9.30;99.90
10875;DHT22;5490;52.200;8.786;2023-03-26T06:12:14;9.30;99.90
10875;DHT22;5490;52.200;8.786;2023-03-26T06:14:41;9.50;99.90
10875;DHT22;5490;52.200;8.786;2023-03-26T06:17:08;9.50;99.90
10875;DHT22;5490;52.200;8.786;2023-03-26T06:19:35;9.60;99.90
10875;DHT22;5490;52.200;8.786;2023-03-26T06:22:02;9.60;99.90
10875;DHT22;5490;52.200;8.786;2023-03-26T06:24:29;9.60;99.90
10875;DHT22;5490;52.200;8.786;2023-03-26T06:26:56;9.60;99.90
10875;DHT22;5490;52.200;8.786;2023-03-26T06:29:24;9.60;99.90
10875;DHT22;5490;52.200;8.786;2023-03-26T06:31:51;9.60;99.90
10875;DHT22;5490;52.200;8.786;2023-03-26T06:41:52;9.60;99.90
10875;DHT22;5490;52.200;8.786;2023-03-26T06:44:19;9.70;99.90
10875;DHT22;5490;52.200;8.786;2023-03-26T06:46:47;9.80;99.90
10875;DHT22;5490;52.200;8.786;2023-03-26T06:49:13;9.80;99.90
10875;DHT22;5490;52.200;8.786;2023-03-26T06:51:40;9.90;99.90
10875;DHT22;5490;52.200;8.786;2023-03-26T06:54:08;9.90;99.90
10875;DHT22;5490;52.200;8.786;2023-03-26T06:56:34;9.90;99.90
10875;DHT22;5490;52.200;8.786;2023-03-26T06:59:02;10.00;99.90
10875;DHT22;5490;52.200;8.786;2023-03-26T07:01:30;10.00;99.90
10875;DHT22;5490;52.200;8.786;2023-03-26T07:03:57;10.00;99.90
10875;DHT22;5490;52.200;8.786;2023-03-26T07:06:23;10.00;99.90
10875;DHT22;5490;52.200;8.786;2023-03-26T07:08:53;10.10;99.90
10875;DHT22;5490;52.200;8.786;2023-03-26T07:11:21;10.10;99.90
10875;DHT22;5490;52.200;8.786;2023-03-26T07:13:50;10.10;99.90
10875;DHT22;5490;52.200;8.786;2023-03-26T07:16:21;10.10;99.90
10875;DHT22;5490;52.200;8.786;2023-03-26T07:18:48;10.10;99.90
10875;DHT22;5490;52.200;8.786;2023-03-26T07:21:18;10.10;99.90
10875;DHT22;5490;52.200;8.786;2023-03-26T07:23:49;10.10;99.90
10875;DHT22;5490;52.200;8.786;2023-03-26T07:26:24;10.00;99.90
10875;DHT22;5490;52.200;8.786;2023-03-26T07:28:58;10.00;99.90
10875;DHT22;5490;52.200;8.786;2023-03-26T07:31:35;10.00;99.90
10875;DHT22;5490;52.200;8.786;2023-03-26T07:34:06;10.00;99.90
10875;DHT22;5490;52.200;8.786;2023-03-26T07:36:41;10.00;99.90
10875;DHT22;5490;52.200;8.786;2023-03-26T07:39:17;10.00;99.90
10875;DHT22;5490;52.200;8.786;2023-03-26T07:41:54;10.00;99.90
10875;DHT22;5490;52.200;8.786;2023-03-26T07:44:35;9.90;99.90
10875;DHT22;5490;52.200;8.786;2023-03-26T07:47:19;9.90;99.90
10875;DHT22;5490;52.200;8.786;2023-03-26T07:49:52;9.90;99.90
10875;DHT22;5490;52.200;8.786;2023-03-26T07:52:19;9.80;99.90
10875;DHT22;5490;52.200;8.786;2023-03-26T07:54:47;9.80;99.90
10875;DHT22;5490;52.200;8.786;2023-03-26T07:57:22;9.80;99.90
10875;DHT22;5490;52.200;8.786;2023-03-26T07:59:58;9.80;99.90
10875;DHT22;5490;52.200;8.786;2023-03-26T08:02:39;9.80;99.90
10875;DHT22;5490;52.200;8.786;2023-03-26T08:05:19;9.80;99.90
10875;DHT22;5490;52.200;8.786;2023-03-26T08:08:01;9.80;99.90
10875;DHT22;5490;52.200;8.786;2023-03-26T08:10:34;9.80;99.90
10875;DHT22;5490;52.200;8.786;2023-03-26T08:13:17;9.80;99.90
10875;DHT22;5490;52.200;8.786;2023-03-26T08:15:48;9.80;99.90
10875;DHT22;5490;52.200;8.786;2023-03-26T08:18:25;9.80;99.90
10875;DHT22;5490;52.200;8.786;2023-03-26T08:20:58;9.80;99.90
10875;DHT22;5490;52.200;8.786;2023-03-26T08:23:30;9.90;99.90
10875;DHT22;5490;52.200;8.786;2023-03-26T08:26:00;9.90;99.90
10875;DHT22;5490;52.200;8.786;2023-03-26T08:28:36;10.10;99.90
10875;DHT22;5490;52.200;8.786;2023-03-26T08:31:07;10.10;99.90
10875;DHT22;5490;52.200;8.786;2023-03-26T08:33:36;10.10;99.90
10875;DHT22;5490;52.200;8.786;2023-03-26T08:36:05;10.20;99.90
10875;DHT22;5490;52.200;8.786;2023-03-26T08:38:32;10.20;99.90
10875;DHT22;5490;52.200;8.786;2023-03-26T08:44:14;10.20;99.90
10875;DHT22;5490;52.200;8.786;2023-03-26T08:50:07;10.20;99.90
10875;DHT22;5490;52.200;8.786;2023-03-26T08:52:55;10.10;99.90
10875;DHT22;5490;52.200;8.786;2023-03-26T08:55:36;10.10;99.90
10875;DHT22;5490;52.200;8.786;2023-03-26T09:01:30;10.10;99.90
10875;DHT22;5490;52.200;8.786;2023-03-26T09:04:20;10.10;99.90
10875;DHT22;5490;52.200;8.786;2023-03-26T09:07:17;10.00;99.90
10875;DHT22;5490;52.200;8.786;2023-03-26T09:10:14;10.10;99.90
10875;DHT22;5490;52.200;8.786;2023-03-26T09:13:09;10.20;99.90
10875;DHT22;5490;52.200;8.786;2023-03-26T09:19:29;10.30;99.90
10875;DHT22;5490;52.200;8.786;2023-03-26T09:22:28;10.30;99.90
10875;DHT22;5490;52.200;8.786;2023-03-26T09:28:17;10.30;99.90
10875;DHT22;5490;52.200;8.786;2023-03-26T09:31:11;10.40;99.90
10875;DHT22;5490;52.200;8.786;2023-03-26T09:33:52;10.40;99.90
10875;DHT22;5490;52.200;8.786;2023-03-26T09:36:32;10.60;99.90
10875;DHT22;5490;52.200;8.786;2023-03-26T09:39:16;10.80;99.90
10875;DHT22;5490;52.200;8.786;2023-03-26T09:41:51;10.90;99.90
10875;DHT22;5490;52.200;8.786;2023-03-26T09:44:33;11.10;99.90
10875;DHT22;5490;52.200;8.786;2023-03-26T09:50:40;11.60;99.90
10875;DHT22;5490;52.200;8.786;2023-03-26T09:53:34;11.80;99.90
10875;DHT22;5490;52.200;8.786;2023-03-26T09:56:24;11.90;99.90
10875;DHT22;5490;52.200;8.786;2023-03-26T09:59:12;12.10;99.90
10875;DHT22;5490;52.200;8.786;2023-03-26T10:01:43;12.00;99.90
10875;DHT22;5490;52.200;8.786;2023-03-26T10:07:27;12.10;99.90
10875;DHT22;5490;52.200;8.786;2023-03-26T10:10:01;11.90;99.90
10875;DHT22;5490;52.200;8.786;2023-03-26T10:12:35;11.90;99.90
10875;DHT22;5490;52.200;8.786;2023-03-26T10:15:17;11.90;99.90
10875;DHT22;5490;52.200;8.786;2023-03-26T10:17:55;11.70;99.90
10875;DHT22;5490;52.200;8.786;2023-03-26T10:20:33;11.60;99.90
10875;DHT22;5490;52.200;8.786;2023-03-26T10:23:23;11.60;99.90
10875;DHT22;5490;52.200;8.786;2023-03-26T10:26:06;11.70;99.90
10875;DHT22;5490;52.200;8.786;2023-03-26T10:31:43;11.70;99.90
10875;DHT22;5490;52.200;8.786;2023-03-26T10:34:37;11.80;99.90
10875;DHT22;5490;52.200;8.786;2023-03-26T10:37:11;11.90;99.90
10875;DHT22;5490;52.200;8.786;2023-03-26T10:43:15;11.90;99.90
10875;DHT22;5490;52.200;8.786;2023-03-26T10:45:57;12.10;99.90
10875;DHT22;5490;52.200;8.786;2023-03-26T10:48:39;12.00;99.90
10875;DHT22;5490;52.200;8.786;2023-03-26T10:54:08;12.20;99.90
10875;DHT22;5490;52.200;8.786;2023-03-26T10:56:39;12.20;99.90
10875;DHT22;5490;52.200;8.786;2023-03-26T10:59:12;12.30;99.90
10875;DHT22;5490;52.200;8.786;2023-03-26T11:01:47;12.30;99.90
10875;DHT22;5490;52.200;8.786;2023-03-26T11:04:24;12.20;99.90
10875;DHT22;5490;52.200;8.786;2023-03-26T11:07:01;12.20;99.90
10875;DHT22;5490;52.200;8.786;2023-03-26T11:09:36;12.30;99.90
10875;DHT22;5490;52.200;8.786;2023-03-26T11:12:10;12.30;99.90
10875;DHT22;5490;52.200;8.786;2023-03-26T11:14:45;12.30;99.90
10875;DHT22;5490;52.200;8.786;2023-03-26T11:17:19;12.30;99.90
10875;DHT22;5490;52.200;8.786;2023-03-26T11:19:53;12.40;99.90
10875;DHT22;5490;52.200;8.786;2023-03-26T11:22:30;12.40;99.90
10875;DHT22;5490;52.200;8.786;2023-03-26T11:25:18;12.30;99.90
10875;DHT22;5490;52.200;8.786;2023-03-26T11:27:56;12.40;99.90
10875;DHT22;5490;52.200;8.786;2023-03-26T11:30:34;12.30;99.90
10875;DHT22;5490;52.200;8.786;2023-03-26T11:33:09;12.30;99.90
10875;DHT22;5490;52.200;8.786;2023-03-26T11:35:39;12.20;99.90
10875;DHT22;5490;52.200;8.786;2023-03-26T11:38:12;12.10;99.90
10875;DHT22;5490;52.200;8.786;2023-03-26T11:40:43;12.00;99.90
10875;DHT22;5490;52.200;8.786;2023-03-26T11:43:17;11.90;99.90
10875;DHT22;5490;52.200;8.786;2023-03-26T11:45:47;11.90;99.90
10875;DHT22;5490;52.200;8.786;2023-03-26T11:48:18;12.00;99.90
10875;DHT22;5490;52.200;8.786;2023-03-26T11:50:52;11.90;99.90
10875;DHT22;5490;52.200;8.786;2023-03-26T11:53:24;11.90;99.90
10875;DHT22;5490;52.200;8.786;2023-03-26T11:55:58;11.80;99.90
10875;DHT22;5490;52.200;8.786;2023-03-26T11:58:29;11.80;99.90
10875;DHT22;5490;52.200;8.786;2023-03-26T12:01:03;11.80;99.90
10875;DHT22;5490;52.200;8.786;2023-03-26T12:03:32;11.80;99.90
10875;DHT22;5490;52.200;8.786;2023-03-26T12:05:59;11.80;99.90
10875;DHT22;5490;52.200;8.786;2023-03-26T12:08:32;11.80;99.90
10875;DHT22;5490;52.200;8.786;2023-03-26T12:11:07;11.70;99.90
10875;DHT22;5490;52.200;8.786;2023-03-26T12:13:38;11.70;99.90
10875;DHT22;5490;52.200;8.786;2023-03-26T12:16:10;11.70;99.90
10875;DHT22;5490;52.200;8.786;2023-03-26T12:18:42;11.80;99.90
10875;DHT22;5490;52.200;8.786;2023-03-26T12:21:11;11.80;99.90
10875;DHT22;5490;52.200;8.786;2023-03-26T12:26:33;11.90;99.90
10875;DHT22;5490;52.200;8.786;2023-03-26T12:29:07;11.80;99.90
10875;DHT22;5490;52.200;8.786;2023-03-26T12:31:50;11.80;99.90
10875;DHT22;5490;52.200;8.786;2023-03-26T12:34:29;11.80;99.90
10875;DHT22;5490;52.200;8.786;2023-03-26T12:36:59;11.90;99.90
10875;DHT22;5490;52.200;8.786;2023-03-26T12:39:31;11.90;99.90
10875;DHT22;5490;52.200;8.786;2023-03-26T12:42:02;11.90;99.90
10875;DHT22;5490;52.200;8.786;2023-03-26T12:44:35;11.90;99.90
10875;DHT22;5490;52.200;8.786;2023-03-26T12:47:13;11.90;99.90
10875;DHT22;5490;52.200;8.786;2023-03-26T12:49:46;11.90;99.90
10875;DHT22;5490;52.200;8.786;2023-03-26T12:52:26;11.90;99.90
10875;DHT22;5490;52.200;8.786;2023-03-26T12:55:02;11.80;99.90
10875;DHT22;5490;52.200;8.786;2023-03-26T12:57:35;11.80;99.90
10875;DHT22;5490;52.200;8.786;2023-03-26T13:00:17;11.80;99.90
10875;DHT22;5490;52.200;8.786;2023-03-26T13:03:14;11.80;99.90
10875;DHT22;5490;52.200;8.786;2023-03-26T13:06:03;11.80;99.90
10875;DHT22;5490;52.200;8.786;2023-03-26T13:09:09;11.80;99.90
10875;DHT22;5490;52.200;8.786;2023-03-26T13:11:54;11.80;99.90
10875;DHT22;5490;52.200;8.786;2023-03-26T13:14:38;11.70;99.90
10875;DHT22;5490;52.200;8.786;2023-03-26T13:17:16;11.70;99.90
10875;DHT22;5490;52.200;8.786;2023-03-26T13:19:51;11.60;99.90
10875;DHT22;5490;52.200;8.786;2023-03-26T13:22:27;11.60;99.90
10875;DHT22;5490;52.200;8.786;2023-03-26T13:25:03;11.50;99.90
10875;DHT22;5490;52.200;8.786;2023-03-26T13:27:41;11.40;99.90
10875;DHT22;5490;52.200;8.786;2023-03-26T13:30:21;11.40;99.90
10875;DHT22;5490;52.200;8.786;2023-03-26T13:32:59;11.30;99.90
10875;DHT22;5490;52.200;8.786;2023-03-26T13:35:34;11.30;99.90
10875;DHT22;5490;52.200;8.786;2023-03-26T13:38:10;11.20;99.90
10875;DHT22;5490;52.200;8.786;2023-03-26T13:40:47;11.20;99.90
10875;DHT22;5490;52.200;8.786;2023-03-26T13:43:37;11.10;99.90
10875;DHT22;5490;52.200;8.786;2023-03-26T13:46:12;11.10;99.90
10875;DHT22;5490;52.200;8.786;2023-03-26T13:48:47;11.00;99.90
10875;DHT22;5490;52.200;8.786;2023-03-26T13:51:21;11.00;99.90
10875;DHT22;5490;52.200;8.786;2023-03-26T13:53:54;11.00;99.90
10875;DHT22;5490;52.200;8.786;2023-03-26T13:56:27;10.90;99.90
10875;DHT22;5490;52.200;8.786;2023-03-26T13:58:58;10.90;99.90
10875;DHT22;5490;52.200;8.786;2023-03-26T14:01:31;10.80;99.90
10875;DHT22;5490;52.200;8.786;2023-03-26T14:04:02;10.70;99.90
10875;DHT22;5490;52.200;8.786;2023-03-26T14:06:38;10.70;99.90
10875;DHT22;5490;52.200;8.786;2023-03-26T14:09:15;10.80;99.90
10875;DHT22;5490;52.200;8.786;2023-03-26T14:12:00;10.50;99.90
10875;DHT22;5490;52.200;8.786;2023-03-26T14:14:39;10.50;99.90
10875;DHT22;5490;52.200;8.786;2023-03-26T14:17:15;10.40;99.90
10875;DHT22;5490;52.200;8.786;2023-03-26T14:20:08;10.40;99.90
10875;DHT22;5490;52.200;8.786;2023-03-26T14:22:45;10.30;99.90
10875;DHT22;5490;52.200;8.786;2023-03-26T14:25:26;10.20;99.90
10875;DHT22;5490;52.200;8.786;2023-03-26T14:28:08;10.10;99.90
10875;DHT22;5490;52.200;8.786;2023-03-26T14:30:50;10.10;99.90
10875;DHT22;5490;52.200;8.786;2023-03-26T14:33:31;10.00;99.90
10875;DHT22;5490;52.200;8.786;2023-03-26T14:36:09;9.90;99.90
10875;DHT22;5490;52.200;8.786;2023-03-26T14:41:50;9.90;99.90
10875;DHT22;5490;52.200;8.786;2023-03-26T14:44:37;9.90;99.90
10875;DHT22;5490;52.200;8.786;2023-03-26T14:47:14;9.90;99.90
10875;DHT22;5490;52.200;8.786;2023-03-26T14:53:04;9.90;99.90
10875;DHT22;5490;52.200;8.786;2023-03-26T14:55:56;9.90;99.90
10875;DHT22;5490;52.200;8.786;2023-03-26T14:59:15;9.80;99.90
10875;DHT22;5490;52.200;8.786;2023-03-26T15:02:05;9.80;99.90
10875;DHT22;5490;52.200;8.786;2023-03-26T15:04:50;9.60;99.90
10875;DHT22;5490;52.200;8.786;2023-03-26T15:07:47;9.60;99.90
10875;DHT22;5490;52.200;8.786;2023-03-26T15:10:54;9.60;99.90
10875;DHT22;5490;52.200;8.786;2023-03-26T15:13:38;9.60;99.90
10875;DHT22;5490;52.200;8.786;2023-03-26T15:16:39;9.60;99.90
10875;DHT22;5490;52.200;8.786;2023-03-26T15:25:57;9.60;99.90
10875;DHT22;5490;52.200;8.786;2023-03-26T15:29:02;9.70;99.90
10875;DHT22;5490;52.200;8.786;2023-03-26T15:32:02;9.60;99.90
10875;DHT22;5490;52.200;8.786;2023-03-26T15:40:43;9.50;99.90
10875;DHT22;5490;52.200;8.786;2023-03-26T15:43:13;9.60;99.90
10875;DHT22;5490;52.200;8.786;2023-03-26T15:45:43;9.60;99.90
10875;DHT22;5490;52.200;8.786;2023-03-26T15:48:30;9.70;99.90
10875;DHT22;5490;52.200;8.786;2023-03-26T15:51:28;9.70;99.90
10875;DHT22;5490;52.200;8.786;2023-03-26T15:54:07;9.60;99.90
10875;DHT22;5490;52.200;8.786;2023-03-26T15:56:50;9.60;99.90
10875;DHT22;5490;52.200;8.786;2023-03-26T15:59:39;9.60;99.90
10875;DHT22;5490;52.200;8.786;2023-03-26T16:02:17;9.60;99.90
10875;DHT22;5490;52.200;8.786;2023-03-26T16:04:51;9.60;99.90
10875;DHT22;5490;52.200;8.786;2023-03-26T16:07:47;9.60;99.90
10875;DHT22;5490;52.200;8.786;2023-03-26T16:10:24;9.50;99.90
10875;DHT22;5490;52.200;8.786;2023-03-26T16:19:33;9.50;99.90
10875;DHT22;5490;52.200;8.786;2023-03-26T16:22:11;9.50;99.90
10875;DHT22;5490;52.200;8.786;2023-03-26T16:24:44;9.50;99.90
10875;DHT22;5490;52.200;8.786;2023-03-26T16:27:30;9.50;99.90
10875;DHT22;5490;52.200;8.786;2023-03-26T16:30:15;9.40;99.90
10875;DHT22;5490;52.200;8.786;2023-03-26T16:32:53;9.40;99.90
10875;DHT22;5490;52.200;8.786;2023-03-26T16:36:04;9.30;99.90
10875;DHT22;5490;52.200;8.786;2023-03-26T16:38:53;9.40;99.90
10875;DHT22;5490;52.200;8.786;2023-03-26T16:41:52;9.40;99.90
10875;DHT22;5490;52.200;8.786;2023-03-26T16:44:25;9.30;99.90
10875;DHT22;5490;52.200;8.786;2023-03-26T16:46:58;9.30;99.90
10875;DHT22;5490;52.200;8.786;2023-03-26T16:49:48;9.20;99.90
10875;DHT22;5490;52.200;8.786;2023-03-26T16:52:25;9.20;99.90
10875;DHT22;5490;52.200;8.786;2023-03-26T16:55:05;9.20;99.90
10875;DHT22;5490;52.200;8.786;2023-03-26T16:57:44;9.20;99.90
10875;DHT22;5490;52.200;8.786;2023-03-26T17:00:29;9.20;99.90
10875;DHT22;5490;52.200;8.786;2023-03-26T17:03:16;9.10;99.90
10875;DHT22;5490;52.200;8.786;2023-03-26T17:06:08;9.00;99.90
10875;DHT22;5490;52.200;8.786;2023-03-26T17:09:01;9.00;99.90
10875;DHT22;5490;52.200;8.786;2023-03-26T17:11:40;9.10;99.90
10875;DHT22;5490;52.200;8.786;2023-03-26T17:14:22;9.00;99.90
10875;DHT22;5490;52.200;8.786;2023-03-26T17:17:18;8.90;99.90
10875;DHT22;5490;52.200;8.786;2023-03-26T17:19:52;9.00;99.90
10875;DHT22;5490;52.200;8.786;2023-03-26T17:22:32;8.90;99.90
10875;DHT22;5490;52.200;8.786;2023-03-26T17:25:10;8.90;99.90
10875;DHT22;5490;52.200;8.786;2023-03-26T17:27:46;8.90;99.90
10875;DHT22;5490;52.200;8.786;2023-03-26T17:30:49;9.00;99.90
10875;DHT22;5490;52.200;8.786;2023-03-26T17:33:21;8.80;99.90
10875;DHT22;5490;52.200;8.786;2023-03-26T17:36:35;8.80;99.90
10875;DHT22;5490;52.200;8.786;2023-03-26T17:39:20;8.70;99.90
10875;DHT22;5490;52.200;8.786;2023-03-26T17:42:16;8.60;99.90
10875;DHT22;5490;52.200;8.786;2023-03-26T17:44:51;8.60;99.90
10875;DHT22;5490;52.200;8.786;2023-03-26T17:47:30;8.50;99.90
10875;DHT22;5490;52.200;8.786;2023-03-26T17:50:10;8.50;99.90
10875;DHT22;5490;52.200;8.786;2023-03-26T17:52:48;8.40;99.90
10875;DHT22;5490;52.200;8.786;2023-03-26T17:55:19;8.40;99.90
10875;DHT22;5490;52.200;8.786;2023-03-26T17:57:56;8.30;99.90
10875;DHT22;5490;52.200;8.786;2023-03-26T18:00:26;8.20;99.90
10875;DHT22;5490;52.200;8.786;2023-03-26T18:02:56;8.10;99.90
10875;DHT22;5490;52.200;8.786;2023-03-26T18:05:28;8.00;99.90
10875;DHT22;5490;52.200;8.786;2023-03-26T18:08:39;8.00;99.90
10875;DHT22;5490;52.200;8.786;2023-03-26T18:11:43;7.90;99.90
10875;DHT22;5490;52.200;8.786;2023-03-26T18:14:44;7.90;99.90
10875;DHT22;5490;52.200;8.786;2023-03-26T18:17:18;7.80;99.90
10875;DHT22;5490;52.200;8.786;2023-03-26T18:19:47;7.70;99.90
10875;DHT22;5490;52.200;8.786;2023-03-26T18:22:18;7.60;99.90
10875;DHT22;5490;52.200;8.786;2023-03-26T18:24:46;7.60;99.90
10875;DHT22;5490;52.200;8.786;2023-03-26T18:27:18;7.60;99.90
10875;DHT22;5490;52.200;8.786;2023-03-26T18:29:58;7.60;99.90
10875;DHT22;5490;52.200;8.786;2023-03-26T18:32:29;7.50;99.90
10875;DHT22;5490;52.200;8.786;2023-03-26T18:40:44;7.50;99.90
10875;DHT22;5490;52.200;8.786;2023-03-26T18:43:22;7.20;99.90
10875;DHT22;5490;52.200;8.786;2023-03-26T18:45:53;7.00;99.90
10875;DHT22;5490;52.200;8.786;2023-03-26T18:48:23;7.00;99.90
10875;DHT22;5490;52.200;8.786;2023-03-26T18:50:53;6.90;99.90
10875;DHT22;5490;52.200;8.786;2023-03-26T18:53:23;6.90;99.90
10875;DHT22;5490;52.200;8.786;2023-03-26T18:55:55;6.90;99.90
10875;DHT22;5490;52.200;8.786;2023-03-26T18:58:24;6.80;99.90
10875;DHT22;5490;52.200;8.786;2023-03-26T19:00:53;6.80;99.90
10875;DHT22;5490;52.200;8.786;2023-03-26T19:03:22;6.70;99.90
10875;DHT22;5490;52.200;8.786;2023-03-26T19:05:49;6.60;99.90
10875;DHT22;5490;52.200;8.786;2023-03-26T19:30:18;6.60;99.90